sensor_id;sensor_type;location;lat;lon;timestamp;P1;durP1;ratioP1;P2;durP2;ratioP2
16385;SDS011;8302;51.154;4.456;2024-03-23T00:55:37;5.68;;;1.95;;
16385;SDS011;8302;51.154;4.456;2024-03-23T00:58:03;4.18;;;1.90;;
16385;SDS011;8302;51.154;4.456;2024-03-23T01:00:30;3.97;;;1.90;;
16385;SDS011;8302;51.154;4.456;2024-03-23T01:02:56;3.03;;;1.75;;
16385;SDS011;8302;51.154;4.456;2024-03-23T01:05:23;4.45;;;2.15;;
16385;SDS011;8302;51.154;4.456;2024-03-23T01:07:49;3.92;;;2.08;;
16385;SDS011;8302;51.154;4.456;2024-03-23T01:10:16;2.88;;;1.67;;
16385;SDS011;8302;51.154;4.456;2024-03-23T01:12:43;5.25;;;2.15;;
16385;SDS011;8302;51.154;4.456;2024-03-23T01:15:10;3.47;;;1.98;;
16385;SDS011;8302;51.154;4.456;2024-03-23T01:17:36;3.17;;;1.88;;
16385;SDS011;8302;51.154;4.456;2024-03-23T01:20:03;4.63;;;2.30;;
16385;SDS011;8302;51.154;4.456;2024-03-23T01:22:29;3.90;;;2.05;;
16385;SDS011;8302;51.154;4.456;2024-03-23T01:24:56;4.45;;;1.90;;
16385;SDS011;8302;51.154;4.456;2024-03-23T01:27:22;3.95;;;1.65;;
16385;SDS011;8302;51.154;4.456;2024-03-23T01:29:50;4.55;;;2.00;;
16385;SDS011;8302;51.154;4.456;2024-03-23T01:32:17;5.32;;;2.00;;
16385;SDS011;8302;51.154;4.456;2024-03-23T01:34:44;2.72;;;1.77;;
16385;SDS011;8302;51.154;4.456;2024-03-23T01:37:10;3.05;;;1.70;;
16385;SDS011;8302;51.154;4.456;2024-03-23T01:39:37;5.65;;;2.33;;
16385;SDS011;8302;51.154;4.456;2024-03-23T01:42:03;2.75;;;1.83;;
16385;SDS011;8302;51.154;4.456;2024-03-23T01:44:30;5.13;;;1.95;;
16385;SDS011;8302;51.154;4.456;2024-03-23T01:46:57;4.25;;;1.83;;
16385;SDS011;8302;51.154;4.456;2024-03-23T01:49:24;4.25;;;1.75;;
16385;SDS011;8302;51.154;4.456;2024-03-23T01:51:50;5.13;;;1.92;;
16385;SDS011;8302;51.154;4.456;2024-03-23T01:54:17;3.67;;;1.80;;
16385;SDS011;8302;51.154;4.456;2024-03-23T01:56:43;1.95;;;1.50;;
16385;SDS011;8302;51.154;4.456;2024-03-23T01:59:09;3.28;;;1.90;;
16385;SDS011;8302;51.154;4.456;2024-03-23T02:01:35;4.57;;;1.50;;
16385;SDS011;8302;51.154;4.456;2024-03-23T02:04:03;7.28;;;1.83;;
16385;SDS011;8302;51.154;4.456;2024-03-23T02:06:29;3.17;;;1.70;;
16385;SDS011;8302;51.154;4.456;2024-03-23T02:08:56;3.00;;;1.75;;
16385;SDS011;8302;51.154;4.456;2024-03-23T02:11:22;5.13;;;2.03;;
16385;SDS011;8302;51.154;4.456;2024-03-23T02:13:49;3.75;;;1.75;;
16385;SDS011;8302;51.154;4.456;2024-03-23T02:16:15;4.60;;;1.80;;
16385;SDS011;8302;51.154;4.456;2024-03-23T02:18:41;4.80;;;1.63;;
16385;SDS011;8302;51.154;4.456;2024-03-23T02:21:09;2.83;;;2.15;;
16385;SDS011;8302;51.154;4.456;2024-03-23T02:23:37;5.70;;;2.13;;
16385;SDS011;8302;51.154;4.456;2024-03-23T02:26:03;3.38;;;1.88;;
16385;SDS011;8302;51.154;4.456;2024-03-23T02:28:29;4.35;;;2.28;;
16385;SDS011;8302;51.154;4.456;2024-03-23T02:30:55;8.75;;;2.00;;
16385;SDS011;8302;51.154;4.456;2024-03-23T02:33:22;5.03;;;1.92;;
16385;SDS011;8302;51.154;4.456;2024-03-23T02:35:49;6.03;;;2.00;;
16385;SDS011;8302;51.154;4.456;2024-03-23T02:38:16;4.13;;;1.63;;
16385;SDS011;8302;51.154;4.456;2024-03-23T02:40:43;4.88;;;2.50;;
16385;SDS011;8302;51.154;4.456;2024-03-23T02:43:09;3.38;;;1.90;;
16385;SDS011;8302;51.154;4.456;2024-03-23T02:45:35;3.60;;;2.05;;
16385;SDS011;8302;51.154;4.456;2024-03-23T02:48:02;3.15;;;1.77;;
16385;SDS011;8302;51.154;4.456;2024-03-23T02:50:29;3.85;;;1.92;;
16385;SDS011;8302;51.154;4.456;2024-03-23T02:52:56;4.90;;;2.03;;
16385;SDS011;8302;51.154;4.456;2024-03-23T02:55:22;5.63;;;2.03;;
16385;SDS011;8302;51.154;4.456;2024-03-23T02:57:50;4.15;;;2.10;;
16385;SDS011;8302;51.154;4.456;2024-03-23T03:00:16;2.90;;;2.15;;
16385;SDS011;8302;51.154;4.456;2024-03-23T03:02:42;3.80;;;1.80;;
16385;SDS011;8302;51.154;4.456;2024-03-23T03:05:08;3.95;;;1.92;;
16385;SDS011;8302;51.154;4.456;2024-03-23T03:07:36;5.57;;;2.35;;
16385;SDS011;8302;51.154;4.456;2024-03-23T03:10:04;5.15;;;2.33;;
16385;SDS011;8302;51.154;4.456;2024-03-23T03:12:33;6.38;;;1.92;;
16385;SDS011;8302;51.154;4.456;2024-03-23T03:15:00;5.00;;;2.20;;
16385;SDS011;8302;51.154;4.456;2024-03-23T03:17:27;4.50;;;1.77;;
16385;SDS011;8302;51.154;4.456;2024-03-23T03:19:52;6.05;;;1.65;;
16385;SDS011;8302;51.154;4.456;2024-03-23T03:22:21;5.30;;;2.35;;
16385;SDS011;8302;51.154;4.456;2024-03-23T03:24:48;4.00;;;1.92;;
16385;SDS011;8302;51.154;4.456;2024-03-23T03:27:13;3.33;;;2.00;;
16385;SDS011;8302;51.154;4.456;2024-03-23T03:29:40;3.00;;;2.13;;
16385;SDS011;8302;51.154;4.456;2024-03-23T03:32:07;4.82;;;1.90;;
16385;SDS011;8302;51.154;4.456;2024-03-23T03:34:34;4.70;;;1.70;;
16385;SDS011;8302;51.154;4.456;2024-03-23T03:37:00;4.95;;;2.13;;
16385;SDS011;8302;51.154;4.456;2024-03-23T03:39:27;2.03;;;1.80;;
16385;SDS011;8302;51.154;4.456;2024-03-23T03:41:52;5.45;;;2.17;;
16385;SDS011;8302;51.154;4.456;2024-03-23T03:44:19;3.28;;;1.50;;
16385;SDS011;8302;51.154;4.456;2024-03-23T03:46:45;4.10;;;1.65;;
16385;SDS011;8302;51.154;4.456;2024-03-23T03:49:13;2.90;;;1.77;;
16385;SDS011;8302;51.154;4.456;2024-03-23T03:51:39;2.95;;;1.70;;
16385;SDS011;8302;51.154;4.456;2024-03-23T03:54:06;4.45;;;1.83;;
16385;SDS011;8302;51.154;4.456;2024-03-23T03:56:31;5.43;;;2.17;;
16385;SDS011;8302;51.154;4.456;2024-03-23T03:58:58;5.63;;;1.95;;
16385;SDS011;8302;51.154;4.456;2024-03-23T04:01:24;4.18;;;1.67;;
16385;SDS011;8302;51.154;4.456;2024-03-23T04:03:51;5.10;;;2.17;;
16385;SDS011;8302;51.154;4.456;2024-03-23T04:06:21;5.07;;;2.05;;
16385;SDS011;8302;51.154;4.456;2024-03-23T04:08:49;7.65;;;2.40;;
16385;SDS011;8302;51.154;4.456;2024-03-23T04:11:14;4.47;;;2.00;;
16385;SDS011;8302;51.154;4.456;2024-03-23T04:13:41;6.00;;;1.98;;
16385;SDS011;8302;51.154;4.456;2024-03-23T04:16:07;4.05;;;1.90;;
16385;SDS011;8302;51.154;4.456;2024-03-23T04:18:34;4.35;;;1.75;;
16385;SDS011;8302;51.154;4.456;2024-03-23T04:21:00;5.45;;;1.73;;
16385;SDS011;8302;51.154;4.456;2024-03-23T04:23:28;5.40;;;1.90;;
16385;SDS011;8302;51.154;4.456;2024-03-23T04:25:54;4.88;;;1.70;;
16385;SDS011;8302;51.154;4.456;2024-03-23T04:28:21;5.28;;;1.70;;
16385;SDS011;8302;51.154;4.456;2024-03-23T04:30:47;4.38;;;1.80;;
16385;SDS011;8302;51.154;4.456;2024-03-23T04:33:14;3.88;;;1.77;;
16385;SDS011;8302;51.154;4.456;2024-03-23T04:35:40;3.55;;;1.75;;
16385;SDS011;8302;51.154;4.456;2024-03-23T04:38:06;3.80;;;1.80;;
16385;SDS011;8302;51.154;4.456;2024-03-23T04:40:35;3.38;;;1.42;;
16385;SDS011;8302;51.154;4.456;2024-03-23T04:43:02;3.72;;;1.02;;
16385;SDS011;8302;51.154;4.456;2024-03-23T04:45:29;3.40;;;0.93;;
16385;SDS011;8302;51.154;4.456;2024-03-23T04:47:56;3.53;;;1.48;;
16385;SDS011;8302;51.154;4.456;2024-03-23T04:50:23;4.95;;;1.42;;
16385;SDS011;8302;51.154;4.456;2024-03-23T04:52:50;4.93;;;1.98;;
16385;SDS011;8302;51.154;4.456;2024-03-23T04:55:16;3.45;;;1.60;;
16385;SDS011;8302;51.154;4.456;2024-03-23T04:57:45;3.03;;;1.35;;
16385;SDS011;8302;51.154;4.456;2024-03-23T05:00:11;5.38;;;1.85;;
16385;SDS011;8302;51.154;4.456;2024-03-23T05:02:43;2.97;;;1.35;;
16385;SDS011;8302;51.154;4.456;2024-03-23T05:05:10;2.47;;;1.45;;
16385;SDS011;8302;51.154;4.456;2024-03-23T05:07:37;3.05;;;1.40;;
16385;SDS011;8302;51.154;4.456;2024-03-23T05:10:03;2.92;;;1.20;;
16385;SDS011;8302;51.154;4.456;2024-03-23T05:12:30;3.67;;;1.60;;
16385;SDS011;8302;51.154;4.456;2024-03-23T05:14:59;4.47;;;1.38;;
16385;SDS011;8302;51.154;4.456;2024-03-23T05:17:24;1.92;;;1.15;;
16385;SDS011;8302;51.154;4.456;2024-03-23T05:19:51;6.05;;;1.45;;
16385;SDS011;8302;51.154;4.456;2024-03-23T05:22:17;2.20;;;1.30;;
16385;SDS011;8302;51.154;4.456;2024-03-23T05:24:44;3.00;;;1.35;;
16385;SDS011;8302;51.154;4.456;2024-03-23T05:27:10;2.22;;;1.40;;
16385;SDS011;8302;51.154;4.456;2024-03-23T05:29:37;3.00;;;1.40;;
16385;SDS011;8302;51.154;4.456;2024-03-23T05:32:04;4.57;;;1.58;;
16385;SDS011;8302;51.154;4.456;2024-03-23T05:34:31;3.83;;;1.48;;
16385;SDS011;8302;51.154;4.456;2024-03-23T05:36:57;2.08;;;1.33;;
16385;SDS011;8302;51.154;4.456;2024-03-23T05:39:24;3.38;;;1.73;;
16385;SDS011;8302;51.154;4.456;2024-03-23T05:41:50;2.53;;;1.38;;
16385;SDS011;8302;51.154;4.456;2024-03-23T05:44:16;4.85;;;1.98;;
16385;SDS011;8302;51.154;4.456;2024-03-23T05:46:42;4.50;;;1.50;;
16385;SDS011;8302;51.154;4.456;2024-03-23T05:49:15;3.33;;;1.30;;
16385;SDS011;8302;51.154;4.456;2024-03-23T05:51:41;5.65;;;1.58;;
16385;SDS011;8302;51.154;4.456;2024-03-23T05:54:07;2.97;;;1.35;;
16385;SDS011;8302;51.154;4.456;2024-03-23T05:56:33;2.78;;;1.48;;
16385;SDS011;8302;51.154;4.456;2024-03-23T05:59:00;2.25;;;1.45;;
16385;SDS011;8302;51.154;4.456;2024-03-23T06:01:26;3.70;;;1.67;;
16385;SDS011;8302;51.154;4.456;2024-03-23T06:03:54;4.07;;;1.23;;
16385;SDS011;8302;51.154;4.456;2024-03-23T06:06:21;2.90;;;1.38;;
16385;SDS011;8302;51.154;4.456;2024-03-23T06:08:48;2.72;;;1.48;;
16385;SDS011;8302;51.154;4.456;2024-03-23T06:11:14;5.57;;;1.40;;
16385;SDS011;8302;51.154;4.456;2024-03-23T06:13:40;3.95;;;1.20;;
16385;SDS011;8302;51.154;4.456;2024-03-23T06:16:06;1.88;;;1.02;;
16385;SDS011;8302;51.154;4.456;2024-03-23T06:18:33;1.95;;;0.93;;
16385;SDS011;8302;51.154;4.456;2024-03-23T06:20:59;1.98;;;1.08;;
16385;SDS011;8302;51.154;4.456;2024-03-23T06:23:27;3.72;;;1.10;;
16385;SDS011;8302;51.154;4.456;2024-03-23T06:25:53;3.10;;;1.30;;
16385;SDS011;8302;51.154;4.456;2024-03-23T06:28:20;4.15;;;1.13;;
16385;SDS011;8302;51.154;4.456;2024-03-23T06:30:47;3.30;;;1.10;;
16385;SDS011;8302;51.154;4.456;2024-03-23T06:33:13;2.35;;;1.10;;
16385;SDS011;8302;51.154;4.456;2024-03-23T06:35:40;7.63;;;1.55;;
16385;SDS011;8302;51.154;4.456;2024-03-23T06:38:07;2.92;;;1.17;;
16385;SDS011;8302;51.154;4.456;2024-03-23T06:40:35;1.73;;;1.15;;
16385;SDS011;8302;51.154;4.456;2024-03-23T06:43:02;2.55;;;1.08;;
16385;SDS011;8302;51.154;4.456;2024-03-23T06:45:28;2.25;;;1.15;;
16385;SDS011;8302;51.154;4.456;2024-03-23T06:47:55;2.63;;;1.33;;
16385;SDS011;8302;51.154;4.456;2024-03-23T06:50:23;2.80;;;0.98;;
16385;SDS011;8302;51.154;4.456;2024-03-23T06:52:49;3.13;;;0.98;;
16385;SDS011;8302;51.154;4.456;2024-03-23T06:55:15;3.63;;;1.00;;
16385;SDS011;8302;51.154;4.456;2024-03-23T06:57:43;3.30;;;1.30;;
16385;SDS011;8302;51.154;4.456;2024-03-23T07:00:10;3.00;;;1.30;;
16385;SDS011;8302;51.154;4.456;2024-03-23T07:02:38;2.58;;;1.10;;
16385;SDS011;8302;51.154;4.456;2024-03-23T07:05:04;3.08;;;1.17;;
16385;SDS011;8302;51.154;4.456;2024-03-23T07:07:32;2.53;;;1.10;;
16385;SDS011;8302;51.154;4.456;2024-03-23T07:09:58;2.63;;;1.10;;
16385;SDS011;8302;51.154;4.456;2024-03-23T07:12:24;1.85;;;1.05;;
16385;SDS011;8302;51.154;4.456;2024-03-23T07:14:52;1.88;;;0.93;;
16385;SDS011;8302;51.154;4.456;2024-03-23T07:17:18;3.53;;;0.93;;
16385;SDS011;8302;51.154;4.456;2024-03-23T07:19:46;3.28;;;1.27;;
16385;SDS011;8302;51.154;4.456;2024-03-23T07:22:13;2.65;;;1.02;;
16385;SDS011;8302;51.154;4.456;2024-03-23T07:24:39;1.67;;;1.15;;
16385;SDS011;8302;51.154;4.456;2024-03-23T07:27:06;3.53;;;1.35;;
16385;SDS011;8302;51.154;4.456;2024-03-23T07:29:35;3.38;;;1.05;;
16385;SDS011;8302;51.154;4.456;2024-03-23T07:32:03;4.70;;;1.48;;
16385;SDS011;8302;51.154;4.456;2024-03-23T07:34:29;2.08;;;0.90;;
16385;SDS011;8302;51.154;4.456;2024-03-23T07:36:56;3.10;;;1.38;;
16385;SDS011;8302;51.154;4.456;2024-03-23T07:39:22;4.15;;;0.98;;
16385;SDS011;8302;51.154;4.456;2024-03-23T07:41:49;2.20;;;1.10;;
16385;SDS011;8302;51.154;4.456;2024-03-23T07:44:14;3.85;;;1.30;;
16385;SDS011;8302;51.154;4.456;2024-03-23T07:46:41;3.60;;;1.50;;
16385;SDS011;8302;51.154;4.456;2024-03-23T07:49:08;2.40;;;1.08;;
16385;SDS011;8302;51.154;4.456;2024-03-23T07:51:35;1.90;;;1.05;;
16385;SDS011;8302;51.154;4.456;2024-03-23T07:54:01;4.10;;;1.33;;
16385;SDS011;8302;51.154;4.456;2024-03-23T07:56:28;4.05;;;1.00;;
16385;SDS011;8302;51.154;4.456;2024-03-23T07:58:53;1.95;;;1.05;;
16385;SDS011;8302;51.154;4.456;2024-03-23T08:01:20;2.03;;;1.25;;
16385;SDS011;8302;51.154;4.456;2024-03-23T08:03:46;2.65;;;1.02;;
16385;SDS011;8302;51.154;4.456;2024-03-23T08:06:15;2.75;;;1.20;;
16385;SDS011;8302;51.154;4.456;2024-03-23T08:08:43;5.38;;;1.50;;
16385;SDS011;8302;51.154;4.456;2024-03-23T08:11:10;6.07;;;1.65;;
16385;SDS011;8302;51.154;4.456;2024-03-23T08:13:37;3.45;;;1.55;;
16385;SDS011;8302;51.154;4.456;2024-03-23T08:16:04;3.38;;;1.63;;
16385;SDS011;8302;51.154;4.456;2024-03-23T08:18:31;4.07;;;1.63;;
16385;SDS011;8302;51.154;4.456;2024-03-23T08:20:57;2.55;;;1.10;;
16385;SDS011;8302;51.154;4.456;2024-03-23T08:23:25;4.30;;;1.45;;
16385;SDS011;8302;51.154;4.456;2024-03-23T08:25:52;5.13;;;1.70;;
16385;SDS011;8302;51.154;4.456;2024-03-23T08:28:18;3.35;;;1.38;;
16385;SDS011;8302;51.154;4.456;2024-03-23T08:30:45;3.72;;;1.17;;
16385;SDS011;8302;51.154;4.456;2024-03-23T08:33:10;3.03;;;1.30;;
16385;SDS011;8302;51.154;4.456;2024-03-23T08:35:38;5.03;;;1.60;;
16385;SDS011;8302;51.154;4.456;2024-03-23T08:38:04;4.43;;;1.50;;
16385;SDS011;8302;51.154;4.456;2024-03-23T08:40:32;4.45;;;1.50;;
16385;SDS011;8302;51.154;4.456;2024-03-23T08:42:58;4.72;;;1.65;;
16385;SDS011;8302;51.154;4.456;2024-03-23T08:45:25;2.33;;;1.30;;
16385;SDS011;8302;51.154;4.456;2024-03-23T08:47:51;3.25;;;1.50;;
16385;SDS011;8302;51.154;4.456;2024-03-23T08:50:18;2.60;;;1.30;;
16385;SDS011;8302;51.154;4.456;2024-03-23T08:52:43;3.35;;;2.03;;
16385;SDS011;8302;51.154;4.456;2024-03-23T08:55:10;4.57;;;1.70;;
16385;SDS011;8302;51.154;4.456;2024-03-23T08:57:38;3.33;;;1.58;;
16385;SDS011;8302;51.154;4.456;2024-03-23T09:00:05;5.78;;;1.63;;
16385;SDS011;8302;51.154;4.456;2024-03-23T09:02:34;3.72;;;1.40;;
16385;SDS011;8302;51.154;4.456;2024-03-23T09:05:01;3.90;;;1.33;;
16385;SDS011;8302;51.154;4.456;2024-03-23T09:07:30;6.10;;;2.17;;
16385;SDS011;8302;51.154;4.456;2024-03-23T09:09:56;5.93;;;2.63;;
16385;SDS011;8302;51.154;4.456;2024-03-23T09:12:22;3.88;;;2.05;;
16385;SDS011;8302;51.154;4.456;2024-03-23T09:14:51;7.50;;;2.65;;
16385;SDS011;8302;51.154;4.456;2024-03-23T09:17:16;10.82;;;2.85;;
16385;SDS011;8302;51.154;4.456;2024-03-23T09:19:44;7.85;;;3.22;;
16385;SDS011;8302;51.154;4.456;2024-03-23T09:22:09;9.07;;;2.70;;
16385;SDS011;8302;51.154;4.456;2024-03-23T09:24:36;13.00;;;3.63;;
16385;SDS011;8302;51.154;4.456;2024-03-23T09:27:02;9.20;;;3.30;;
16385;SDS011;8302;51.154;4.456;2024-03-23T09:29:29;10.65;;;3.63;;
16385;SDS011;8302;51.154;4.456;2024-03-23T09:31:56;9.93;;;3.40;;
16385;SDS011;8302;51.154;4.456;2024-03-23T09:34:23;10.18;;;3.67;;
16385;SDS011;8302;51.154;4.456;2024-03-23T09:36:50;9.15;;;3.50;;
16385;SDS011;8302;51.154;4.456;2024-03-23T09:39:17;8.70;;;3.58;;
16385;SDS011;8302;51.154;4.456;2024-03-23T09:41:43;11.90;;;4.10;;
16385;SDS011;8302;51.154;4.456;2024-03-23T09:44:10;7.68;;;3.55;;
16385;SDS011;8302;51.154;4.456;2024-03-23T09:46:36;11.27;;;3.63;;
16385;SDS011;8302;51.154;4.456;2024-03-23T09:49:06;12.70;;;3.65;;
16385;SDS011;8302;51.154;4.456;2024-03-23T09:51:35;11.20;;;4.03;;
16385;SDS011;8302;51.154;4.456;2024-03-23T09:54:02;10.07;;;3.75;;
16385;SDS011;8302;51.154;4.456;2024-03-23T09:56:28;7.95;;;2.97;;
16385;SDS011;8302;51.154;4.456;2024-03-23T09:58:59;7.32;;;2.92;;
16385;SDS011;8302;51.154;4.456;2024-03-23T10:01:25;6.50;;;3.40;;
16385;SDS011;8302;51.154;4.456;2024-03-23T10:03:52;9.18;;;3.30;;
16385;SDS011;8302;51.154;4.456;2024-03-23T10:06:22;8.95;;;3.08;;
16385;SDS011;8302;51.154;4.456;2024-03-23T10:08:50;6.53;;;3.03;;
16385;SDS011;8302;51.154;4.456;2024-03-23T10:11:16;7.47;;;2.97;;
16385;SDS011;8302;51.154;4.456;2024-03-23T10:13:43;6.03;;;2.90;;
16385;SDS011;8302;51.154;4.456;2024-03-23T10:16:09;7.38;;;2.70;;
16385;SDS011;8302;51.154;4.456;2024-03-23T10:18:39;6.75;;;2.63;;
16385;SDS011;8302;51.154;4.456;2024-03-23T10:21:08;5.75;;;2.30;;
16385;SDS011;8302;51.154;4.456;2024-03-23T10:23:38;4.93;;;2.30;;
16385;SDS011;8302;51.154;4.456;2024-03-23T10:26:12;6.68;;;2.30;;
16385;SDS011;8302;51.154;4.456;2024-03-23T10:28:43;4.50;;;1.92;;
16385;SDS011;8302;51.154;4.456;2024-03-23T10:31:15;4.35;;;2.03;;
16385;SDS011;8302;51.154;4.456;2024-03-23T10:33:44;4.07;;;2.10;;
16385;SDS011;8302;51.154;4.456;2024-03-23T10:36:10;6.43;;;2.30;;
16385;SDS011;8302;51.154;4.456;2024-03-23T10:38:38;5.32;;;1.92;;
16385;SDS011;8302;51.154;4.456;2024-03-23T10:41:04;3.55;;;1.63;;
16385;SDS011;8302;51.154;4.456;2024-03-23T10:43:31;5.10;;;1.45;;
16385;SDS011;8302;51.154;4.456;2024-03-23T10:45:58;3.80;;;1.85;;
16385;SDS011;8302;51.154;4.456;2024-03-23T10:48:25;3.45;;;1.40;;
16385;SDS011;8302;51.154;4.456;2024-03-23T10:50:51;5.53;;;1.77;;
16385;SDS011;8302;51.154;4.456;2024-03-23T10:53:18;5.38;;;1.67;;
16385;SDS011;8302;51.154;4.456;2024-03-23T10:55:45;2.75;;;1.20;;
16385;SDS011;8302;51.154;4.456;2024-03-23T10:58:12;1.98;;;1.13;;
16385;SDS011;8302;51.154;4.456;2024-03-23T11:00:38;4.10;;;1.50;;
16385;SDS011;8302;51.154;4.456;2024-03-23T11:05:46;3.22;;;1.25;;
16385;SDS011;8302;51.154;4.456;2024-03-23T11:08:21;2.47;;;1.20;;
16385;SDS011;8302;51.154;4.456;2024-03-23T11:10:57;2.20;;;1.40;;
16385;SDS011;8302;51.154;4.456;2024-03-23T11:13:37;3.08;;;1.40;;
16385;SDS011;8302;51.154;4.456;2024-03-23T11:16:12;2.15;;;1.08;;
16385;SDS011;8302;51.154;4.456;2024-03-23T11:18:39;4.50;;;1.30;;
16385;SDS011;8302;51.154;4.456;2024-03-23T11:21:06;1.92;;;1.30;;
16385;SDS011;8302;51.154;4.456;2024-03-23T11:23:33;4.18;;;1.63;;
16385;SDS011;8302;51.154;4.456;2024-03-23T11:26:00;3.63;;;1.60;;
16385;SDS011;8302;51.154;4.456;2024-03-23T11:28:27;2.10;;;1.42;;
16385;SDS011;8302;51.154;4.456;2024-03-23T11:30:53;2.42;;;1.27;;
16385;SDS011;8302;51.154;4.456;2024-03-23T11:33:19;2.95;;;1.25;;
16385;SDS011;8302;51.154;4.456;2024-03-23T11:35:45;4.50;;;1.42;;
16385;SDS011;8302;51.154;4.456;2024-03-23T11:38:12;3.28;;;1.40;;
16385;SDS011;8302;51.154;4.456;2024-03-23T11:40:39;3.08;;;1.52;;
16385;SDS011;8302;51.154;4.456;2024-03-23T11:43:08;3.03;;;1.50;;
16385;SDS011;8302;51.154;4.456;2024-03-23T11:45:35;4.13;;;1.60;;
16385;SDS011;8302;51.154;4.456;2024-03-23T11:48:02;2.78;;;1.70;;
16385;SDS011;8302;51.154;4.456;2024-03-23T11:50:28;2.38;;;1.58;;
16385;SDS011;8302;51.154;4.456;2024-03-23T11:53:06;2.47;;;1.17;;
16385;SDS011;8302;51.154;4.456;2024-03-23T11:55:38;3.53;;;1.60;;
16385;SDS011;8302;51.154;4.456;2024-03-23T11:58:05;3.33;;;1.48;;
16385;SDS011;8302;51.154;4.456;2024-03-23T12:00:32;3.65;;;1.58;;
16385;SDS011;8302;51.154;4.456;2024-03-23T12:03:00;3.08;;;1.50;;
16385;SDS011;8302;51.154;4.456;2024-03-23T12:05:26;3.83;;;1.50;;
16385;SDS011;8302;51.154;4.456;2024-03-23T12:07:53;3.15;;;1.48;;
16385;SDS011;8302;51.154;4.456;2024-03-23T12:10:19;2.33;;;1.27;;
16385;SDS011;8302;51.154;4.456;2024-03-23T12:12:46;1.63;;;1.30;;
16385;SDS011;8302;51.154;4.456;2024-03-23T12:15:11;1.83;;;1.10;;
16385;SDS011;8302;51.154;4.456;2024-03-23T12:17:42;1.27;;;1.02;;
16385;SDS011;8302;51.154;4.456;2024-03-23T12:20:08;1.95;;;1.20;;
16385;SDS011;8302;51.154;4.456;2024-03-23T12:22:35;1.67;;;1.10;;
16385;SDS011;8302;51.154;4.456;2024-03-23T12:25:01;2.28;;;1.45;;
16385;SDS011;8302;51.154;4.456;2024-03-23T12:27:28;3.33;;;1.33;;
16385;SDS011;8302;51.154;4.456;2024-03-23T12:29:54;1.83;;;1.30;;
16385;SDS011;8302;51.154;4.456;2024-03-23T12:32:20;1.92;;;1.17;;
16385;SDS011;8302;51.154;4.456;2024-03-23T12:34:48;2.75;;;1.10;;
16385;SDS011;8302;51.154;4.456;2024-03-23T12:37:14;2.97;;;1.10;;
16385;SDS011;8302;51.154;4.456;2024-03-23T12:39:42;2.40;;;1.25;;
16385;SDS011;8302;51.154;4.456;2024-03-23T12:42:09;3.92;;;1.20;;
16385;SDS011;8302;51.154;4.456;2024-03-23T12:44:35;2.75;;;1.20;;
16385;SDS011;8302;51.154;4.456;2024-03-23T12:47:02;2.78;;;0.82;;
16385;SDS011;8302;51.154;4.456;2024-03-23T12:49:27;1.38;;;0.80;;
16385;SDS011;8302;51.154;4.456;2024-03-23T12:51:56;1.98;;;1.05;;
16385;SDS011;8302;51.154;4.456;2024-03-23T12:54:22;1.77;;;1.15;;
16385;SDS011;8302;51.154;4.456;2024-03-23T12:56:49;1.80;;;1.15;;
16385;SDS011;8302;51.154;4.456;2024-03-23T12:59:15;3.10;;;1.17;;
16385;SDS011;8302;51.154;4.456;2024-03-23T13:01:43;1.95;;;1.10;;
16385;SDS011;8302;51.154;4.456;2024-03-23T13:04:09;2.20;;;1.52;;
16385;SDS011;8302;51.154;4.456;2024-03-23T13:06:36;4.82;;;1.65;;
16385;SDS011;8302;51.154;4.456;2024-03-23T13:09:03;2.33;;;1.10;;
16385;SDS011;8302;51.154;4.456;2024-03-23T13:11:30;2.72;;;1.17;;
16385;SDS011;8302;51.154;4.456;2024-03-23T13:13:56;4.20;;;1.55;;
16385;SDS011;8302;51.154;4.456;2024-03-23T13:16:23;3.60;;;1.25;;
16385;SDS011;8302;51.154;4.456;2024-03-23T13:18:49;1.90;;;0.95;;
16385;SDS011;8302;51.154;4.456;2024-03-23T13:21:17;1.65;;;0.80;;
16385;SDS011;8302;51.154;4.456;2024-03-23T13:23:42;2.20;;;1.15;;
16385;SDS011;8302;51.154;4.456;2024-03-23T13:26:14;0.98;;;0.88;;
16385;SDS011;8302;51.154;4.456;2024-03-23T13:28:40;0.85;;;0.75;;
16385;SDS011;8302;51.154;4.456;2024-03-23T13:31:07;1.65;;;0.88;;
16385;SDS011;8302;51.154;4.456;2024-03-23T13:33:33;2.10;;;0.88;;
16385;SDS011;8302;51.154;4.456;2024-03-23T13:36:00;2.47;;;1.15;;
16385;SDS011;8302;51.154;4.456;2024-03-23T13:38:27;2.72;;;0.80;;
16385;SDS011;8302;51.154;4.456;2024-03-23T13:40:54;1.30;;;1.00;;
16385;SDS011;8302;51.154;4.456;2024-03-23T13:43:23;2.25;;;1.05;;
16385;SDS011;8302;51.154;4.456;2024-03-23T13:45:53;0.47;;;0.47;;
16385;SDS011;8302;51.154;4.456;2024-03-23T13:48:19;1.52;;;0.73;;
16385;SDS011;8302;51.154;4.456;2024-03-23T13:50:46;2.03;;;0.68;;
16385;SDS011;8302;51.154;4.456;2024-03-23T13:53:13;0.52;;;0.52;;
16385;SDS011;8302;51.154;4.456;2024-03-23T13:55:45;2.38;;;0.70;;
16385;SDS011;8302;51.154;4.456;2024-03-23T13:58:11;3.72;;;1.10;;
16385;SDS011;8302;51.154;4.456;2024-03-23T14:00:39;2.08;;;0.65;;
16385;SDS011;8302;51.154;4.456;2024-03-23T14:03:08;0.95;;;0.80;;
16385;SDS011;8302;51.154;4.456;2024-03-23T14:05:33;0.73;;;0.70;;
16385;SDS011;8302;51.154;4.456;2024-03-23T14:08:00;2.30;;;0.73;;
16385;SDS011;8302;51.154;4.456;2024-03-23T14:10:26;1.70;;;0.70;;
16385;SDS011;8302;51.154;4.456;2024-03-23T14:12:53;1.33;;;0.73;;
16385;SDS011;8302;51.154;4.456;2024-03-23T14:15:19;2.50;;;0.85;;
16385;SDS011;8302;51.154;4.456;2024-03-23T14:17:47;1.80;;;0.88;;
16385;SDS011;8302;51.154;4.456;2024-03-23T14:20:13;1.20;;;0.80;;
16385;SDS011;8302;51.154;4.456;2024-03-23T14:22:40;0.57;;;0.57;;
16385;SDS011;8302;51.154;4.456;2024-03-23T14:25:08;3.22;;;0.77;;
16385;SDS011;8302;51.154;4.456;2024-03-23T14:27:34;0.70;;;0.70;;
16385;SDS011;8302;51.154;4.456;2024-03-23T14:30:03;0.68;;;0.52;;
16385;SDS011;8302;51.154;4.456;2024-03-23T14:32:29;0.70;;;0.50;;
16385;SDS011;8302;51.154;4.456;2024-03-23T14:35:00;1.92;;;0.68;;
16385;SDS011;8302;51.154;4.456;2024-03-23T14:37:26;1.23;;;0.70;;
16385;SDS011;8302;51.154;4.456;2024-03-23T14:39:55;1.27;;;0.70;;
16385;SDS011;8302;51.154;4.456;2024-03-23T14:42:20;1.58;;;0.75;;
16385;SDS011;8302;51.154;4.456;2024-03-23T14:44:47;3.67;;;1.00;;
16385;SDS011;8302;51.154;4.456;2024-03-23T14:47:13;1.00;;;0.55;;
16385;SDS011;8302;51.154;4.456;2024-03-23T14:49:40;1.98;;;0.90;;
16385;SDS011;8302;51.154;4.456;2024-03-23T14:52:07;1.27;;;0.60;;
16385;SDS011;8302;51.154;4.456;2024-03-23T14:54:34;2.85;;;0.60;;
16385;SDS011;8302;51.154;4.456;2024-03-23T14:57:00;2.47;;;0.60;;
16385;SDS011;8302;51.154;4.456;2024-03-23T14:59:27;1.52;;;1.00;;
16385;SDS011;8302;51.154;4.456;2024-03-23T15:01:53;2.38;;;0.90;;
16385;SDS011;8302;51.154;4.456;2024-03-23T15:04:20;1.85;;;0.90;;
16385;SDS011;8302;51.154;4.456;2024-03-23T15:06:46;1.38;;;0.80;;
16385;SDS011;8302;51.154;4.456;2024-03-23T15:09:16;3.53;;;1.00;;
16385;SDS011;8302;51.154;4.456;2024-03-23T15:11:42;0.98;;;0.60;;
16385;SDS011;8302;51.154;4.456;2024-03-23T15:14:09;1.83;;;0.93;;
16385;SDS011;8302;51.154;4.456;2024-03-23T15:16:36;1.23;;;0.60;;
16385;SDS011;8302;51.154;4.456;2024-03-23T15:19:03;1.55;;;0.70;;
16385;SDS011;8302;51.154;4.456;2024-03-23T15:21:31;0.52;;;0.52;;
16385;SDS011;8302;51.154;4.456;2024-03-23T15:23:58;1.02;;;0.60;;
16385;SDS011;8302;51.154;4.456;2024-03-23T15:26:25;1.45;;;0.80;;
16385;SDS011;8302;51.154;4.456;2024-03-23T15:28:52;2.38;;;0.90;;
16385;SDS011;8302;51.154;4.456;2024-03-23T15:31:35;2.58;;;0.95;;
16385;SDS011;8302;51.154;4.456;2024-03-23T15:34:02;2.80;;;1.40;;
16385;SDS011;8302;51.154;4.456;2024-03-23T15:36:29;1.92;;;0.90;;
16385;SDS011;8302;51.154;4.456;2024-03-23T15:38:55;2.00;;;1.30;;
16385;SDS011;8302;51.154;4.456;2024-03-23T15:41:21;3.72;;;1.27;;
16385;SDS011;8302;51.154;4.456;2024-03-23T15:43:51;4.65;;;1.50;;
16385;SDS011;8302;51.154;4.456;2024-03-23T15:46:17;8.10;;;1.70;;
16385;SDS011;8302;51.154;4.456;2024-03-23T15:48:44;5.22;;;1.80;;
16385;SDS011;8302;51.154;4.456;2024-03-23T15:51:12;4.43;;;1.45;;
16385;SDS011;8302;51.154;4.456;2024-03-23T15:53:39;5.65;;;2.08;;
16385;SDS011;8302;51.154;4.456;2024-03-23T15:56:05;8.20;;;2.05;;